createdAt,value
2023-02-09T00:00:02.584Z,102566.75
2023-02-09T00:02:43.267Z,102565.59
2023-02-09T00:05:13.112Z,102553.25
2023-02-09T00:07:41.526Z,102556.38
2023-02-09T00:10:10.550Z,102554.41
2023-02-09T00:12:56.052Z,102550.69
2023-02-09T00:15:24.629Z,102548.94
2023-02-09T00:17:54.590Z,102557.34
2023-02-09T00:20:23.054Z,102566.19
2023-02-09T00:22:51.402Z,102550.78
2023-02-09T00:25:20.288Z,102556.06
2023-02-09T00:27:48.695Z,102539.00
2023-02-09T00:30:16.905Z,102533.63
2023-02-09T00:32:47.072Z,102532.81
2023-02-09T00:35:17.531Z,102536.34
2023-02-09T00:37:46.359Z,102527.72
2023-02-09T00:40:14.958Z,102531.84
2023-02-09T00:42:43.122Z,102528.03
2023-02-09T00:45:11.867Z,102530.56
2023-02-09T00:47:40.136Z,102528.50
2023-02-09T00:50:09.267Z,102528.97
2023-02-09T00:52:38.830Z,102520.34
2023-02-09T00:55:07.506Z,102512.63
2023-02-09T00:57:36.232Z,102509.47
2023-02-09T01:00:06.534Z,102516.34
2023-02-09T01:02:34.873Z,102519.69
2023-02-09T01:05:03.473Z,102514.56
2023-02-09T01:07:32.009Z,102506.84
2023-02-09T01:10:03.109Z,102510.63
2023-02-09T01:12:32.086Z,102518.47
2023-02-09T01:15:02.259Z,102501.59
2023-02-09T01:17:30.760Z,102506.00
2023-02-09T01:19:59.236Z,102487.78
2023-02-09T01:22:27.546Z,102493.78
2023-02-09T01:24:55.906Z,102484.97
2023-02-09T01:27:25.618Z,102481.72
2023-02-09T01:29:53.938Z,102479.88
2023-02-09T01:32:22.081Z,102486.41
2023-02-09T01:34:52.031Z,102475.81
2023-02-09T01:37:20.546Z,102481.59
2023-02-09T01:39:49.383Z,102466.28
2023-02-09T01:42:20.617Z,102466.69
2023-02-09T01:45:20.276Z,102476.66
2023-02-09T01:47:51.679Z,102476.44
2023-02-09T01:50:21.090Z,102478.84
2023-02-09T01:52:50.892Z,102479.53
2023-02-09T01:55:23.862Z,102475.25
2023-02-09T01:57:56.000Z,102487.56
2023-02-09T02:00:26.699Z,102486.47
2023-02-09T02:02:58.672Z,102481.88
2023-02-09T02:05:28.258Z,102473.06
2023-02-09T02:08:02.525Z,102474.19
2023-02-09T02:10:31.142Z,102474.75
2023-02-09T02:12:59.540Z,102463.13
2023-02-09T02:15:34.388Z,102455.59
2023-02-09T02:18:24.600Z,102461.47
2023-02-09T02:21:16.177Z,102465.66
2023-02-09T02:23:53.864Z,102460.69
2023-02-09T02:26:40.052Z,102451.41
2023-02-09T02:29:26.091Z,102449.72
2023-02-09T02:32:13.836Z,102445.13
2023-02-09T02:34:48.473Z,102433.94
2023-02-09T02:37:29.418Z,102431.09
2023-02-09T02:40:11.581Z,102423.13
2023-02-09T02:42:53.008Z,102421.38
2023-02-09T02:45:34.081Z,102412.78
2023-02-09T02:48:13.206Z,102416.75
2023-02-09T02:50:47.820Z,102426.53
2023-02-09T02:53:19.348Z,102409.97
2023-02-09T02:55:50.328Z,102404.75
2023-02-09T02:58:20.878Z,102403.78
2023-02-09T03:00:52.793Z,102408.09
2023-02-09T03:03:24.791Z,102398.91
2023-02-09T03:05:54.262Z,102392.16
2023-02-09T03:08:22.599Z,102383.84
2023-02-09T03:10:51.012Z,102383.84
2023-02-09T03:13:38.587Z,102381.41
2023-02-09T03:16:29.273Z,102379.78
2023-02-09T03:19:09.465Z,102376.03
2023-02-09T03:21:47.808Z,102378.47
2023-02-09T03:24:25.655Z,102378.34
2023-02-09T03:26:58.913Z,102377.06
2023-02-09T03:29:28.998Z,102381.06
2023-02-09T03:31:58.244Z,102371.75
2023-02-09T03:34:28.682Z,102378.50
2023-02-09T03:36:58.682Z,102379.31
2023-02-09T03:39:27.048Z,102366.25
2023-02-09T03:41:55.443Z,102374.44
2023-02-09T03:44:30.222Z,102359.00
2023-02-09T03:47:00.516Z,102357.88
2023-02-09T03:49:33.634Z,102355.06
2023-02-09T03:52:02.088Z,102351.50
2023-02-09T03:54:30.759Z,102345.56
2023-02-09T03:57:01.153Z,102352.19
2023-02-09T03:59:29.633Z,102338.28
2023-02-09T04:01:59.709Z,102341.59
2023-02-09T04:04:29.336Z,102344.91
2023-02-09T04:06:58.150Z,102342.03
2023-02-09T04:09:27.135Z,102343.81
2023-02-09T04:11:56.069Z,102348.88
2023-02-09T04:14:24.730Z,102343.81
2023-02-09T04:16:53.090Z,102341.94
2023-02-09T04:19:21.773Z,102330.56
2023-02-09T04:21:52.804Z,102337.22
2023-02-09T04:24:28.893Z,102335.66
2023-02-09T04:26:57.266Z,102335.47
2023-02-09T04:29:25.939Z,102326.84
2023-02-09T04:31:54.211Z,102325.75
2023-02-09T04:34:24.265Z,102326.19
2023-02-09T04:36:53.992Z,102327.97
2023-02-09T04:39:22.098Z,102319.59
2023-02-09T04:41:50.430Z,102319.59
2023-02-09T04:44:18.665Z,102321.34
2023-02-09T04:46:47.159Z,102321.34
2023-02-09T04:49:15.861Z,102331.81
2023-02-09T04:51:44.641Z,102327.84
2023-02-09T04:54:14.400Z,102326.84
2023-02-09T04:56:42.762Z,102333.47
2023-02-09T04:59:29.013Z,102333.47
2023-02-09T05:01:57.336Z,102331.63
2023-02-09T05:04:26.172Z,102333.25
2023-02-09T05:06:54.468Z,102331.63
2023-02-09T05:09:24.798Z,102337.47
2023-02-09T05:11:52.982Z,102341.56
2023-02-09T05:14:22.751Z,102334.28
2023-02-09T05:16:51.202Z,102330.44
2023-02-09T05:19:19.607Z,102330.31
2023-02-09T05:21:48.135Z,102321.03
2023-02-09T05:24:16.468Z,102318.31
2023-02-09T05:26:46.239Z,102317.53
2023-02-09T05:29:14.781Z,102309.00
2023-02-09T05:31:43.260Z,102312.44
2023-02-09T05:34:12.088Z,102305.50
2023-02-09T05:36:40.443Z,102304.41
2023-02-09T05:39:08.805Z,102309.69
2023-02-09T05:41:54.440Z,102316.44
2023-02-09T05:44:24.248Z,102321.16
2023-02-09T05:46:52.592Z,102315.91
2023-02-09T05:49:21.287Z,102318.84
2023-02-09T05:51:49.698Z,102316.97
2023-02-09T05:54:18.109Z,102316.88
2023-02-09T05:56:46.547Z,102314.09
2023-02-09T05:59:15.101Z,102322.38
2023-02-09T06:01:44.929Z,102319.84
2023-02-09T06:04:13.475Z,102320.75
2023-02-09T06:06:41.859Z,102320.97
2023-02-09T06:09:10.542Z,102316.09
2023-02-09T06:11:38.886Z,102320.97
2023-02-09T06:14:07.191Z,102321.38
2023-02-09T06:16:35.396Z,102331.28
2023-02-09T06:19:05.517Z,102337.78
2023-02-09T06:21:33.772Z,102340.03
2023-02-09T06:24:02.072Z,102341.28
2023-02-09T06:26:30.380Z,102333.63
2023-02-09T06:28:58.713Z,102337.69
2023-02-09T06:31:27.236Z,102346.13
2023-02-09T06:33:55.808Z,102339.97
2023-02-09T06:36:25.450Z,102339.19
2023-02-09T06:38:53.851Z,102343.81
2023-02-09T06:41:22.282Z,102348.13
2023-02-09T06:43:50.404Z,102352.94
2023-02-09T06:46:18.795Z,102339.03
2023-02-09T06:48:47.256Z,102347.56
2023-02-09T06:51:17.880Z,102345.72
2023-02-09T06:53:48.134Z,102342.28
2023-02-09T06:56:16.646Z,102341.41
2023-02-09T06:58:44.811Z,102337.13
2023-02-09T07:01:16.027Z,102337.00
2023-02-09T07:03:45.216Z,102336.50
2023-02-09T07:06:16.387Z,102334.84
2023-02-09T07:08:45.646Z,102337.66
2023-02-09T07:11:17.488Z,102342.06
2023-02-09T07:13:46.940Z,102337.41
2023-02-09T07:16:15.646Z,102337.69
2023-02-09T07:18:44.466Z,102342.09
2023-02-09T07:21:15.782Z,102337.19
2023-02-09T07:23:43.931Z,102335.84
2023-02-09T07:26:16.879Z,102334.84
2023-02-09T07:28:46.008Z,102326.03
2023-02-09T07:31:16.129Z,102330.50
2023-02-09T07:33:44.723Z,102320.09
2023-02-09T07:36:15.569Z,102318.81
2023-02-09T07:38:45.532Z,102310.66
2023-02-09T07:41:18.291Z,102311.84
2023-02-09T07:43:47.227Z,102314.84
2023-02-09T07:46:17.842Z,102302.56
2023-02-09T07:48:47.152Z,102298.97
2023-02-09T07:51:16.273Z,102302.06
2023-02-09T07:53:45.088Z,102297.59
2023-02-09T07:56:13.554Z,102309.59
2023-02-09T07:58:44.117Z,102304.25
2023-02-09T08:01:13.999Z,102299.06
2023-02-09T08:03:45.079Z,102299.94
2023-02-09T08:06:21.799Z,102300.03
2023-02-09T08:08:52.328Z,102301.66
2023-02-09T08:11:24.484Z,102306.66
2023-02-09T08:13:55.917Z,102299.72
2023-02-09T08:16:29.935Z,102303.81
2023-02-09T08:19:01.397Z,102299.56
2023-02-09T08:21:30.165Z,102299.44
2023-02-09T08:24:00.479Z,102302.69
2023-02-09T08:26:29.200Z,102301.66
2023-02-09T08:28:59.399Z,102295.53
2023-02-09T08:31:27.842Z,102291.91
2023-02-09T08:33:56.309Z,102293.50
2023-02-09T08:36:25.121Z,102290.09
2023-02-09T08:38:53.470Z,102288.38
2023-02-09T08:41:24.036Z,102285.75
2023-02-09T08:43:53.042Z,102294.31
2023-02-09T08:46:22.966Z,102291.69
2023-02-09T08:48:51.531Z,102286.38
2023-02-09T08:51:20.259Z,102284.75
2023-02-09T08:53:52.691Z,102287.94
2023-02-09T08:56:22.504Z,102291.66
2023-02-09T08:58:51.428Z,102283.31
2023-02-09T09:01:19.902Z,102263.81
2023-02-09T09:03:49.905Z,102278.06
2023-02-09T09:06:18.612Z,102281.63
2023-02-09T09:08:46.972Z,102278.66
2023-02-09T09:11:16.169Z,102278.44
2023-02-09T09:13:44.615Z,102274.94
2023-02-09T09:16:17.380Z,102272.25
2023-02-09T09:18:46.222Z,102266.72
2023-02-09T09:21:17.631Z,102266.09
2023-02-09T09:23:47.080Z,102270.22
2023-02-09T09:26:16.591Z,102257.13
2023-02-09T09:28:45.530Z,102256.31
2023-02-09T09:31:15.776Z,102261.59
2023-02-09T09:33:44.472Z,102252.22
2023-02-09T09:36:14.707Z,102254.19
2023-02-09T09:38:45.655Z,102260.31
2023-02-09T09:41:24.741Z,102261.34
2023-02-09T09:43:54.907Z,102253.66
2023-02-09T09:46:32.533Z,102250.75
2023-02-09T09:49:01.961Z,102247.03
2023-02-09T09:51:38.205Z,102250.72
2023-02-09T09:54:14.098Z,102247.66
2023-02-09T09:56:42.676Z,102242.03
2023-02-09T09:59:17.998Z,102240.91
2023-02-09T10:01:50.547Z,102233.47
2023-02-09T10:04:20.977Z,102230.03
2023-02-09T10:06:57.688Z,102219.72
2023-02-09T10:09:36.999Z,102217.22
2023-02-09T10:12:16.762Z,102222.13
2023-02-09T10:14:45.085Z,102208.28
2023-02-09T10:17:13.423Z,102202.19
2023-02-09T10:19:42.838Z,102205.16
2023-02-09T10:22:14.065Z,102209.78
2023-02-09T10:24:43.718Z,102202.31
2023-02-09T10:27:16.477Z,102200.16
2023-02-09T10:29:44.862Z,102194.16
2023-02-09T10:32:18.016Z,102189.41
2023-02-09T10:34:49.119Z,102182.78
2023-02-09T10:37:21.810Z,102172.88
2023-02-09T10:40:01.553Z,102168.41
2023-02-09T10:42:32.710Z,102161.44
2023-02-09T10:45:08.273Z,102167.91
2023-02-09T10:47:36.604Z,102169.88
2023-02-09T10:50:25.900Z,102157.09
2023-02-09T10:53:00.248Z,102150.28
2023-02-09T10:55:36.483Z,102146.00
2023-02-09T10:58:16.246Z,102140.13
2023-02-09T11:00:51.817Z,102144.44
2023-02-09T11:03:22.763Z,102141.06
2023-02-09T11:05:59.773Z,102132.44
2023-02-09T11:08:39.703Z,102133.34
2023-02-09T11:11:14.898Z,102124.75
2023-02-09T11:13:43.617Z,102129.09
2023-02-09T11:16:44.611Z,102125.84
2023-02-09T11:19:32.165Z,102112.19
2023-02-09T11:22:09.457Z,102109.91
2023-02-09T11:24:59.904Z,102113.50
2023-02-09T11:27:44.471Z,102102.94
2023-02-09T11:30:33.224Z,102095.22
2023-02-09T11:33:11.742Z,102092.00
2023-02-09T11:35:51.967Z,102091.75
2023-02-09T11:38:29.315Z,102088.75
2023-02-09T11:40:59.731Z,102078.66
2023-02-09T11:43:36.984Z,102076.34
2023-02-09T11:46:13.226Z,102067.66
2023-02-09T11:48:48.149Z,102069.97
2023-02-09T11:51:20.723Z,102069.41
2023-02-09T11:53:55.980Z,102058.00
2023-02-09T11:56:26.552Z,102061.53
2023-02-09T11:59:02.088Z,102056.44
2023-02-09T12:01:42.337Z,102054.47
2023-02-09T12:04:21.018Z,102055.56
2023-02-09T12:06:52.347Z,102061.22
2023-02-09T12:09:35.746Z,102054.66
2023-02-09T12:12:15.193Z,102049.88
2023-02-09T12:14:58.606Z,102040.19
2023-02-09T12:17:36.204Z,102031.47
2023-02-09T12:20:05.755Z,102020.53
2023-02-09T12:22:58.833Z,102012.19
2023-02-09T12:26:01.114Z,102005.78
2023-02-09T12:28:42.499Z,102004.97
2023-02-09T12:31:14.958Z,101999.97
2023-02-09T12:34:22.667Z,101993.16
2023-02-09T12:37:20.070Z,101983.22
2023-02-09T12:40:19.423Z,101982.66
2023-02-09T12:43:06.940Z,101981.41
2023-02-09T12:45:37.974Z,101967.22
2023-02-09T12:48:17.747Z,101956.38
2023-02-09T12:50:50.572Z,101956.75
2023-02-09T12:53:50.230Z,101949.75
2023-02-09T12:56:28.625Z,101947.41
2023-02-09T12:59:17.073Z,101946.41
2023-02-09T13:02:11.210Z,101934.69
2023-02-09T13:04:50.156Z,101939.84
2023-02-09T13:07:28.291Z,101939.69
2023-02-09T13:10:00.125Z,101933.75
2023-02-09T13:12:37.318Z,101941.63
2023-02-09T13:15:14.117Z,101932.84
2023-02-09T13:17:50.520Z,101927.31
2023-02-09T13:20:58.842Z,101918.31
2023-02-09T13:23:44.620Z,101922.28
2023-02-09T13:26:21.665Z,101916.88
2023-02-09T13:28:50.442Z,101921.00
2023-02-09T13:31:27.661Z,101914.84
2023-02-09T13:34:01.891Z,101916.47
2023-02-09T13:36:40.944Z,101907.66
2023-02-09T13:39:10.183Z,101906.75
2023-02-09T13:41:40.969Z,101901.66
2023-02-09T13:44:23.512Z,101893.88
2023-02-09T13:46:54.732Z,101903.31
2023-02-09T13:49:24.729Z,101895.44
2023-02-09T13:52:13.722Z,101891.91
2023-02-09T13:54:43.498Z,101889.41
2023-02-09T13:57:19.311Z,101884.22
2023-02-09T13:59:48.910Z,101883.22
2023-02-09T14:02:21.295Z,101882.25
2023-02-09T14:04:55.958Z,101883.03
2023-02-09T14:07:32.155Z,101882.03
2023-02-09T14:10:04.256Z,101881.00
2023-02-09T14:12:55.770Z,101879.97
2023-02-09T14:15:46.991Z,101878.13
2023-02-09T14:18:31.044Z,101870.16
2023-02-09T14:21:01.399Z,101874.28
2023-02-09T14:23:35.440Z,101862.94
2023-02-09T14:26:06.495Z,101876.50
2023-02-09T14:28:36.799Z,101873.72
2023-02-09T14:31:07.374Z,101871.88
2023-02-09T14:33:38.909Z,101868.31
2023-02-09T14:36:23.483Z,101870.03
2023-02-09T14:39:04.606Z,101862.22
2023-02-09T14:41:34.690Z,101870.84
2023-02-09T14:44:04.537Z,101862.06
2023-02-09T14:46:49.342Z,101871.44
2023-02-09T14:49:19.404Z,101870.41
2023-02-09T14:51:49.440Z,101860.69
2023-02-09T14:54:26.565Z,101863.88
2023-02-09T14:56:57.992Z,101854.16
2023-02-09T14:59:27.026Z,101843.66
2023-02-09T15:01:56.889Z,101848.63
2023-02-09T15:04:25.729Z,101841.59
2023-02-09T15:07:02.970Z,101837.16
2023-02-09T15:09:38.114Z,101837.78
2023-02-09T15:12:08.505Z,101837.59
2023-02-09T15:14:44.162Z,101834.84
2023-02-09T15:17:17.711Z,101837.25
2023-02-09T15:19:46.741Z,101832.72
2023-02-09T15:22:16.760Z,101831.72
2023-02-09T15:24:49.548Z,101827.16
2023-02-09T15:27:26.679Z,101836.38
2023-02-09T15:29:59.330Z,101842.28
2023-02-09T15:32:29.110Z,101838.72
2023-02-09T15:34:57.546Z,101844.63
2023-02-09T15:37:28.546Z,101838.47
2023-02-09T15:40:03.085Z,101845.19
2023-02-09T15:42:57.380Z,101845.81
2023-02-09T15:45:46.265Z,101839.47
2023-02-09T15:48:16.165Z,101853.00
2023-02-09T15:50:46.933Z,101850.25
2023-02-09T15:53:19.398Z,101845.75
2023-02-09T15:55:49.485Z,101848.13
2023-02-09T15:58:20.840Z,101841.94
2023-02-09T16:00:49.222Z,101856.41
2023-02-09T16:03:20.194Z,101855.41
2023-02-09T16:05:50.856Z,101848.44
2023-02-09T16:08:23.302Z,101845.78
2023-02-09T16:10:53.906Z,101840.50
2023-02-09T16:13:22.276Z,101849.84
2023-02-09T16:15:53.165Z,101844.50
2023-02-09T16:18:21.684Z,101834.88
2023-02-09T16:20:52.906Z,101840.72
2023-02-09T16:23:23.905Z,101837.19
2023-02-09T16:25:55.107Z,101839.72
2023-02-09T16:28:23.620Z,101829.31
2023-02-09T16:30:54.551Z,101836.97
2023-02-09T16:33:25.272Z,101838.59
2023-02-09T16:35:56.624Z,101840.19
2023-02-09T16:38:26.820Z,101835.00
2023-02-09T16:40:57.400Z,101829.78
2023-02-09T16:43:25.930Z,101833.19
2023-02-09T16:46:03.232Z,101827.94
2023-02-09T16:48:35.088Z,101830.41
2023-02-09T16:51:03.766Z,101827.72
2023-02-09T16:53:34.622Z,101826.72
2023-02-09T16:56:10.225Z,101823.13
2023-02-09T16:58:39.683Z,101816.03
2023-02-09T17:01:14.270Z,101816.72
2023-02-09T17:03:44.397Z,101814.88
2023-02-09T17:06:17.460Z,101813.06
2023-02-09T17:08:46.208Z,101806.91
2023-02-09T17:11:19.187Z,101804.22
2023-02-09T17:13:48.460Z,101806.63
2023-02-09T17:16:20.068Z,101798.00
2023-02-09T17:18:51.598Z,101796.94
2023-02-09T17:21:23.444Z,101801.97
2023-02-09T17:23:51.951Z,101795.00
2023-02-09T17:26:22.512Z,101790.59
2023-02-09T17:28:51.222Z,101791.31
2023-02-09T17:31:23.440Z,101784.44
2023-02-09T17:33:54.104Z,101782.66
2023-02-09T17:36:28.062Z,101779.19
2023-02-09T17:38:58.735Z,101779.09
2023-02-09T17:41:32.639Z,101784.34
2023-02-09T17:44:22.445Z,101785.97
2023-02-09T17:46:57.773Z,101777.28
2023-02-09T17:49:26.552Z,101779.81
2023-02-09T17:51:55.071Z,101782.31
2023-02-09T17:54:23.516Z,101784.88
2023-02-09T17:56:54.096Z,101780.53
2023-02-09T17:59:22.648Z,101782.13
2023-02-09T18:01:51.306Z,101776.16
2023-02-09T18:04:27.434Z,101771.81
2023-02-09T18:06:57.764Z,101769.22
2023-02-09T18:09:26.257Z,101770.00
2023-02-09T18:12:02.254Z,101770.84
2023-02-09T18:14:32.602Z,101775.09
2023-02-09T18:17:01.443Z,101761.34
2023-02-09T18:19:30.006Z,101767.34
2023-02-09T18:22:01.076Z,101756.09
2023-02-09T18:24:30.741Z,101759.41
2023-02-09T18:27:00.905Z,101754.16
2023-02-09T18:29:30.384Z,101751.53
2023-02-09T18:31:59.212Z,101746.34
2023-02-09T18:34:28.495Z,101748.91
2023-02-09T18:36:56.944Z,101743.72
2023-02-09T18:39:25.342Z,101741.19
2023-02-09T18:41:55.338Z,101737.72
2023-02-09T18:44:29.498Z,101735.16
2023-02-09T18:47:00.527Z,101728.22
2023-02-09T18:49:29.466Z,101729.78
2023-02-09T18:51:59.492Z,101734.91
2023-02-09T18:54:29.050Z,101727.13
2023-02-09T18:56:57.606Z,101719.44
2023-02-09T18:59:30.665Z,101723.69
2023-02-09T19:01:59.654Z,101719.44
2023-02-09T19:04:29.125Z,101712.56
2023-02-09T19:06:59.351Z,101708.22
2023-02-09T19:09:28.805Z,101707.31
2023-02-09T19:11:59.780Z,101702.88
2023-02-09T19:14:40.734Z,101698.38
2023-02-09T19:17:19.768Z,101694.88
2023-02-09T19:19:56.252Z,101695.75
2023-02-09T19:22:26.388Z,101701.69
2023-02-09T19:24:56.938Z,101693.19
2023-02-09T19:27:29.808Z,101691.47
2023-02-09T19:30:01.241Z,101689.69
2023-02-09T19:32:33.943Z,101684.47
2023-02-09T19:35:05.611Z,101674.13
2023-02-09T19:37:36.840Z,101667.25
2023-02-09T19:40:18.358Z,101671.41
2023-02-09T19:42:48.975Z,101675.56
2023-02-09T19:45:19.111Z,101673.84
2023-02-09T19:47:47.432Z,101667.16
2023-02-09T19:50:16.863Z,101664.69
2023-02-09T19:52:49.577Z,101661.28
2023-02-09T19:55:18.453Z,101668.06
2023-02-09T19:57:47.036Z,101664.53
2023-02-09T20:00:19.256Z,101656.69
2023-02-09T20:02:48.540Z,101657.75
2023-02-09T20:05:18.868Z,101658.63
2023-02-09T20:07:48.971Z,101658.81
2023-02-09T20:10:17.708Z,101655.31
2023-02-09T20:12:46.779Z,101657.00
2023-02-09T20:15:15.197Z,101654.41
2023-02-09T20:20:13.736Z,101649.13
2023-02-09T20:22:42.200Z,101646.53
2023-02-09T20:25:11.630Z,101649.94
2023-02-09T20:27:41.090Z,101632.81
2023-02-09T20:30:11.152Z,101621.59
2023-02-09T20:32:39.668Z,101615.59
2023-02-09T20:35:12.256Z,101609.56
2023-02-09T20:37:40.628Z,101609.53
2023-02-09T20:40:11.458Z,101613.75
2023-02-09T20:42:57.826Z,101606.13
2023-02-09T20:45:44.014Z,101602.88
2023-02-09T20:48:14.071Z,101607.47
2023-02-09T20:50:45.379Z,101610.28
2023-02-09T20:53:14.318Z,101608.69
2023-02-09T20:55:43.508Z,101601.72
2023-02-09T20:58:13.709Z,101592.28
2023-02-09T21:00:42.558Z,101590.38
2023-02-09T21:03:11.304Z,101582.63
2023-02-09T21:05:39.909Z,101575.69
2023-02-09T21:08:09.905Z,101575.53
2023-02-09T21:10:39.079Z,101571.41
2023-02-09T21:13:10.688Z,101574.88
2023-02-09T21:15:43.225Z,101576.03
2023-02-09T21:18:11.665Z,101580.28
2023-02-09T21:20:40.188Z,101575.31
2023-02-09T21:23:09.935Z,101581.44
2023-02-09T21:25:38.073Z,101574.56
2023-02-09T21:28:07.150Z,101579.72
2023-02-09T21:30:35.523Z,101578.16
2023-02-09T21:33:03.928Z,101580.84
2023-02-09T21:35:32.613Z,101590.44
2023-02-09T21:38:01.014Z,101582.84
2023-02-09T21:40:30.736Z,101596.66
2023-02-09T21:42:59.290Z,101593.41
2023-02-09T21:45:27.845Z,101594.25
2023-02-09T21:47:56.103Z,101597.47
2023-02-09T21:50:24.551Z,101602.41
2023-02-09T21:52:54.757Z,101597.31
2023-02-09T21:55:23.082Z,101599.84
2023-02-09T21:57:52.755Z,101599.09
2023-02-09T22:00:21.743Z,101598.38
2023-02-09T22:02:53.398Z,101597.38
2023-02-09T22:05:22.136Z,101601.84
2023-02-09T22:07:50.986Z,101605.25
2023-02-09T22:10:19.496Z,101594.84
2023-02-09T22:12:48.110Z,101601.69
2023-02-09T22:15:19.292Z,101603.53
2023-02-09T22:17:48.427Z,101595.81
2023-02-09T22:20:16.879Z,101592.44
2023-02-09T22:22:46.280Z,101596.72
2023-02-09T22:25:14.482Z,101595.94
2023-02-09T22:27:43.348Z,101593.41
2023-02-09T22:30:12.912Z,101584.84
2023-02-09T22:32:43.383Z,101591.56
2023-02-09T22:35:11.765Z,101589.84
2023-02-09T22:37:40.226Z,101585.63
2023-02-09T22:40:09.431Z,101583.22
2023-02-09T22:42:37.786Z,101589.59
2023-02-09T22:45:07.496Z,101592.72
2023-02-09T22:47:36.236Z,101585.31
2023-02-09T22:50:06.690Z,101593.25
2023-02-09T22:52:35.278Z,101589.28
2023-02-09T22:55:03.678Z,101581.75
2023-02-09T22:57:32.297Z,101577.69
2023-02-09T23:00:00.580Z,101581.31
2023-02-09T23:02:29.326Z,101584.91
2023-02-09T23:04:57.487Z,101594.56
2023-02-09T23:07:27.666Z,101591.28
2023-02-09T23:09:55.947Z,101589.69
2023-02-09T23:12:24.424Z,101594.97
2023-02-09T23:14:54.740Z,101583.88
2023-02-09T23:17:23.179Z,101572.78
2023-02-09T23:19:51.479Z,101579.69
2023-02-09T23:22:20.477Z,101577.00
2023-02-09T23:24:50.262Z,101573.47
2023-02-09T23:27:19.464Z,101565.78
2023-02-09T23:29:48.050Z,101557.19
2023-02-09T23:32:17.072Z,101570.94
2023-02-09T23:34:45.881Z,101565.88
2023-02-09T23:37:19.171Z,101570.19
2023-02-09T23:40:04.673Z,101564.34
2023-02-09T23:42:33.507Z,101562.63
2023-02-09T23:45:02.341Z,101562.72
2023-02-09T23:47:30.538Z,101562.78
2023-02-09T23:49:58.891Z,101562.78
2023-02-09T23:52:27.537Z,101566.19
2023-02-09T23:54:56.255Z,101559.34
2023-02-09T23:57:26.464Z,101562.84
2023-02-09T23:59:54.810Z,101558.50
